Time;durP1;ratioP1;P1;durP2;ratioP2;P2;SDS_P1;SDS_P2;PMS_P1;PMS_P2;Temp;Humidity;BMP_temperature;BMP_pressure;BME280_temperature;BME280_humidity;BME280_pressure;Samples;Min_cycle;Max_cycle;Signal;HPM_P1;HPM_P2
2022/08/05 00:01:29;;;;;;;39.03;36.63;;;;;;;19.90;100.00;101041.31;5053817;28;20400;-80
2022/08/05 00:03:57;;;;;;;37.28;34.88;;;;;;;20.12;100.00;101041.22;5044661;28;20045;-80
2022/08/05 00:06:27;;;;;;;40.95;38.03;;;;;;;20.36;100.00;101038.91;5050861;28;20049;-80
2022/08/05 00:08:54;;;;;;;42.10;39.60;;;;;;;20.26;100.00;101035.34;5047876;28;20053;-78
2022/08/05 00:11:22;;;;;;;45.40;42.28;;;;;;;20.61;100.00;101036.59;5050036;28;20053;-79
2022/08/05 00:13:52;;;;;;;47.08;44.25;;;;;;;20.58;100.00;101037.94;5044159;28;20568;-79
2022/08/05 00:16:19;;;;;;;47.40;44.40;;;;;;;20.39;100.00;101034.84;5054103;28;20114;-79
2022/08/05 00:18:48;;;;;;;46.65;43.75;;;;;;;19.96;100.00;101035.97;5039845;28;20107;-80
2022/08/05 00:21:17;;;;;;;47.20;44.40;;;;;;;19.82;100.00;101033.75;5052262;28;20056;-80
2022/08/05 00:23:49;;;;;;;48.55;45.75;;;;;;;20.27;100.00;101035.09;5052379;28;20474;-80
2022/08/05 00:26:18;;;;;;;47.35;44.47;;;;;;;20.01;100.00;101042.22;5044844;28;20470;-79
2022/08/05 00:28:49;;;;;;;46.97;43.70;;;;;;;20.26;100.00;101040.72;5052359;28;20076;-81
2022/08/05 00:31:16;;;;;;;47.85;44.95;;;;;;;20.06;100.00;101031.47;5052942;28;20063;-79
2022/08/05 00:33:43;;;;;;;47.35;44.55;;;;;;;20.08;100.00;101033.88;5044191;28;20452;-79
2022/08/05 00:36:10;;;;;;;54.80;51.33;;;;;;;20.03;100.00;101032.00;5050771;28;20083;-81
2022/08/05 00:38:38;;;;;;;50.03;46.92;;;;;;;20.02;100.00;101043.03;5049263;28;20045;-79
2022/08/05 00:41:07;;;;;;;42.85;40.03;;;;;;;20.07;100.00;101040.38;5042960;28;20450;-78
2022/08/05 00:43:35;;;;;;;43.78;41.28;;;;;;;19.95;100.00;101027.09;5048759;28;20041;-80
2022/08/05 00:46:03;;;;;;;46.47;43.40;;;;;;;19.18;100.00;101031.88;5052773;28;20107;-80
2022/08/05 00:48:30;;;;;;;50.60;47.35;;;;;;;19.11;100.00;101027.75;5045785;28;20655;-80
2022/08/05 00:50:59;;;;;;;48.15;45.05;;;;;;;19.12;100.00;101026.69;5049590;28;20045;-81
2022/08/05 00:53:27;;;;;;;46.10;43.15;;;;;;;19.22;100.00;101027.59;5049364;28;20408;-79
2022/08/05 00:55:57;;;;;;;47.20;44.60;;;;;;;19.63;100.00;101022.53;5041392;28;20056;-78
2022/08/05 00:58:26;;;;;;;56.20;52.83;;;;;;;19.10;100.00;101018.88;5051081;28;20063;-82
2022/08/05 01:00:53;;;;;;;39.80;37.17;;;;;;;19.10;100.00;101018.88;5050584;28;20059;-82
2022/08/05 01:03:24;;;;;;;47.38;44.47;;;;;;;18.96;100.00;101017.66;5045262;28;20060;-78
2022/08/05 01:05:53;;;;;;;44.78;42.38;;;;;;;19.21;100.00;101023.28;5049737;28;20049;-81
2022/08/05 01:08:20;;;;;;;43.38;40.33;;;;;;;18.86;100.00;101018.38;5050068;28;20049;-77
2022/08/05 01:10:53;;;;;;;42.63;40.03;;;;;;;18.73;100.00;101024.16;5048485;28;20429;-81
2022/08/05 01:13:34;;;;;;;49.90;46.72;;;;;;;18.21;100.00;101036.13;5043827;28;20053;-79
2022/08/05 01:16:06;;;;;;;46.38;43.38;;;;;;;18.80;100.00;101022.06;5051206;28;20056;-78
2022/08/05 01:18:41;;;;;;;46.08;43.38;;;;;;;18.97;100.00;101022.81;5044630;28;20052;-78
2022/08/05 01:21:18;;;;;;;55.70;52.90;;;;;;;19.10;100.00;101026.16;5045747;28;20063;-80
2022/08/05 01:24:01;;;;;;;56.75;53.75;;;;;;;19.14;100.00;101013.78;5047362;28;20163;-81
2022/08/05 01:26:50;;;;;;;37.67;35.17;;;;;;;19.04;100.00;101019.09;5043958;28;20060;-81
2022/08/05 01:29:25;;;;;;;43.75;41.15;;;;;;;18.89;100.00;101017.06;5045886;28;20073;-79
2022/08/05 01:31:56;;;;;;;42.95;40.13;;;;;;;18.61;100.00;101023.44;5053032;28;20114;-80
2022/08/05 01:34:32;;;;;;;39.05;36.53;;;;;;;18.95;100.00;101022.22;5045757;28;20505;-78
2022/08/05 01:37:21;;;;;;;43.85;40.72;;;;;;;18.99;100.00;101028.72;5048343;28;20045;-78
2022/08/05 01:39:53;;;;;;;37.42;34.95;;;;;;;18.68;100.00;101026.75;5047731;28;20045;-78
2022/08/05 01:42:25;;;;;;;38.28;35.25;;;;;;;18.64;100.00;101022.94;5041003;28;20102;-81
2022/08/05 01:44:59;;;;;;;38.63;36.28;;;;;;;18.97;100.00;101022.81;5048379;28;20044;-81
2022/08/05 01:47:33;;;;;;;38.75;36.22;;;;;;;17.99;100.00;101033.41;5050319;28;20053;-78
2022/08/05 01:50:04;;;;;;;36.90;34.40;;;;;;;18.53;100.00;101028.19;5043021;28;20511;-81
2022/08/05 01:52:34;;;;;;;38.10;35.70;;;;;;;17.92;100.00;101031.97;5048329;28;20060;-78
2022/08/05 01:55:06;;;;;;;38.35;35.95;;;;;;;17.68;100.00;101034.81;5048659;28;20072;-78
2022/08/05 01:57:37;;;;;;;36.13;33.72;;;;;;;17.84;100.00;101027.84;5045582;28;20540;-80
2022/08/05 02:02:53;;;;;;;40.03;37.35;;;;;;;18.03;100.00;101017.59;5072185;22;20053;-80
2022/08/05 02:05:24;;;;;;;42.25;39.08;;;;;;;17.52;100.00;101033.78;5029799;28;20053;-83
2022/08/05 02:07:51;;;;;;;37.80;35.30;;;;;;;18.28;100.00;101028.72;5027915;28;20049;-79
2022/08/05 02:10:17;;;;;;;39.97;37.47;;;;;;;18.29;100.00;101029.53;5031576;28;20053;-82
2022/08/05 02:12:51;;;;;;;41.25;38.75;;;;;;;18.41;100.00;101026.72;5030453;28;20045;-83
2022/08/05 02:15:26;;;;;;;43.58;40.97;;;;;;;18.07;100.00;101030.31;5030531;28;20104;-82
2022/08/05 02:18:02;;;;;;;41.72;39.22;;;;;;;18.09;100.00;101027.38;5032654;28;20048;-81
2022/08/05 02:20:38;;;;;;;52.45;49.45;;;;;;;18.24;100.00;101040.19;5032604;28;20037;-80
2022/08/05 02:23:09;;;;;;;39.72;37.13;;;;;;;18.33;100.00;101030.63;5031906;28;20096;-80
2022/08/05 02:25:39;;;;;;;54.90;52.08;;;;;;;18.36;100.00;101034.72;5030082;28;20045;-79
2022/08/05 02:28:08;;;;;;;56.50;53.55;;;;;;;18.24;100.00;101041.00;5029736;28;20049;-81
2022/08/05 02:30:39;;;;;;;50.75;47.20;;;;;;;17.38;100.00;101035.16;5032447;28;20496;-80
2022/08/05 02:33:10;;;;;;;46.90;43.95;;;;;;;17.31;100.00;101029.94;5028925;28;20120;-82
2022/08/05 02:35:38;;;;;;;39.67;36.88;;;;;;;17.25;100.00;101043.53;5027347;28;20045;-82
2022/08/05 02:38:07;;;;;;;44.50;41.72;;;;;;;17.45;100.00;101037.66;5032339;28;20064;-82
2022/08/05 02:40:35;;;;;;;40.72;37.95;;;;;;;17.62;100.00;101035.81;5032265;28;20046;-80
2022/08/05 02:43:02;;;;;;;42.42;39.53;;;;;;;17.67;100.00;101043.09;5027289;28;20049;-79
2022/08/05 02:45:32;;;;;;;39.92;37.30;;;;;;;17.31;100.00;101047.94;5032443;28;20049;-82
2022/08/05 02:48:01;;;;;;;38.30;35.67;;;;;;;18.09;100.00;101043.50;5032414;28;20049;-80
2022/08/05 02:50:30;;;;;;;42.30;39.67;;;;;;;18.03;100.00;101039.94;5030667;28;20042;-81
2022/08/05 02:52:58;;;;;;;45.67;42.58;;;;;;;18.31;100.00;101041.66;5030293;28;20057;-82
2022/08/05 02:55:26;;;;;;;40.65;37.95;;;;;;;18.26;100.00;101040.78;5028500;28;20057;-80
2022/08/05 02:57:54;;;;;;;44.28;41.47;;;;;;;18.08;100.00;101045.38;5030424;28;20053;-83
2022/08/05 03:00:21;;;;;;;44.20;41.15;;;;;;;18.10;100.00;101044.34;5022108;28;20046;-80
2022/08/05 03:02:49;;;;;;;40.45;37.65;;;;;;;17.89;100.00;101043.22;5030086;28;20057;-80
2022/08/05 03:05:17;;;;;;;37.95;35.35;;;;;;;17.82;100.00;101038.84;5026386;28;20111;-80
2022/08/05 03:07:46;;;;;;;40.72;37.85;;;;;;;17.90;100.00;101045.66;5029955;28;20084;-80
2022/08/05 03:10:15;;;;;;;39.78;36.85;;;;;;;17.97;100.00;101040.09;5030966;28;20053;-82
2022/08/05 03:12:42;;;;;;;38.40;35.80;;;;;;;17.96;100.00;101051.91;5029633;28;20052;-83
2022/08/05 03:15:10;;;;;;;36.38;33.33;;;;;;;18.06;100.00;101044.81;5029169;28;20050;-83
2022/08/05 03:17:37;;;;;;;36.03;33.50;;;;;;;17.98;100.00;101052.50;5031228;28;20042;-83
2022/08/05 03:20:05;;;;;;;33.72;31.42;;;;;;;17.76;100.00;101050.53;5034112;28;20053;-82
2022/08/05 03:22:32;;;;;;;39.38;36.25;;;;;;;17.61;100.00;101051.09;5027876;28;20045;-81
2022/08/05 03:25:01;;;;;;;38.80;35.90;;;;;;;17.17;100.00;101056.25;5034076;28;20045;-80
2022/08/05 03:27:29;;;;;;;46.97;43.88;;;;;;;17.83;100.00;101053.09;5036225;28;20049;-83
2022/08/05 03:29:56;;;;;;;45.47;42.60;;;;;;;18.02;100.00;101054.44;5035274;28;20049;-81
2022/08/05 03:32:24;;;;;;;45.88;43.03;;;;;;;18.07;100.00;101057.19;5035867;28;20053;-83
2022/08/05 03:34:52;;;;;;;44.38;41.53;;;;;;;18.09;100.00;101059.63;5033585;28;20050;-80
2022/08/05 03:37:20;;;;;;;45.40;42.60;;;;;;;18.04;100.00;101057.69;5035064;28;20049;-84
2022/08/05 03:39:56;;;;;;;51.40;48.35;;;;;;;18.37;100.00;101053.28;5035249;28;20080;-83
2022/08/05 03:42:25;;;;;;;49.00;46.17;;;;;;;18.44;100.00;101045.84;5027627;28;20127;-80
2022/08/05 03:44:52;;;;;;;44.83;41.92;;;;;;;18.58;100.00;101053.53;5031091;28;20049;-83
2022/08/05 03:47:19;;;;;;;47.67;44.67;;;;;;;18.53;100.00;101057.78;5030193;28;20045;-82
2022/08/05 03:49:45;;;;;;;53.88;50.67;;;;;;;18.60;100.00;101052.22;5033258;28;20045;-80
2022/08/05 03:52:20;;;;;;;51.83;48.53;;;;;;;18.56;100.00;101059.16;5035447;28;20056;-80
2022/08/05 03:54:52;;;;;;;46.17;42.78;;;;;;;18.64;100.00;101064.13;5033359;28;20481;-82
2022/08/05 03:57:25;;;;;;;45.92;42.92;;;;;;;18.60;100.00;101062.16;5032890;28;20049;-77
2022/08/05 04:00:01;;;;;;;45.88;42.78;;;;;;;18.37;100.00;101065.94;5032281;28;20041;-80
2022/08/05 04:02:31;;;;;;;42.60;39.63;;;;;;;18.83;100.00;101061.13;5029756;28;20069;-82
2022/08/05 04:04:59;;;;;;;44.30;41.30;;;;;;;18.98;100.00;101062.09;5030913;28;20049;-80
2022/08/05 04:07:27;;;;;;;40.25;37.63;;;;;;;19.22;100.00;101061.78;5031674;28;20498;-82
2022/08/05 04:09:55;;;;;;;46.83;43.95;;;;;;;19.28;100.00;101065.34;5031231;28;20054;-79
2022/08/05 04:12:24;;;;;;;41.30;38.90;;;;;;;19.07;100.00;101059.75;5034112;28;20140;-83
2022/08/05 04:14:51;;;;;;;34.65;32.53;;;;;;;19.20;100.00;101051.25;5033875;28;20041;-82
2022/08/05 04:17:19;;;;;;;40.65;38.35;;;;;;;19.16;100.00;101050.16;5033722;28;20046;-81
2022/08/05 04:19:47;;;;;;;40.33;37.92;;;;;;;19.26;100.00;101056.72;5032713;28;20056;-85
2022/08/05 04:22:15;;;;;;;41.35;39.15;;;;;;;19.18;100.00;101047.19;5031652;28;20049;-79
2022/08/05 04:24:43;;;;;;;43.00;40.20;;;;;;;19.29;100.00;101048.13;5032477;28;20046;-83
2022/08/05 04:27:10;;;;;;;43.35;40.85;;;;;;;19.31;100.00;101054.88;5035000;28;20049;-79
2022/08/05 04:29:38;;;;;;;42.63;39.88;;;;;;;19.50;100.00;101047.22;5034971;28;20057;-78
2022/08/05 04:32:06;;;;;;;44.28;41.88;;;;;;;19.44;100.00;101048.25;5035141;28;20045;-78
2022/08/05 04:34:33;;;;;;;44.00;41.20;;;;;;;19.73;100.00;101050.63;5031691;28;20046;-79
2022/08/05 04:37:00;;;;;;;38.92;36.42;;;;;;;19.87;100.00;101054.53;5034077;28;20489;-81
2022/08/05 04:39:27;;;;;;;34.70;32.67;;;;;;;19.75;100.00;101051.19;5033184;28;20049;-82
2022/08/05 04:41:54;;;;;;;34.97;32.47;;;;;;;20.03;100.00;101048.16;5032133;28;20041;-77
2022/08/05 04:44:21;;;;;;;34.00;31.80;;;;;;;20.05;100.00;101046.00;5032910;28;20049;-78
2022/08/05 04:46:49;;;;;;;32.45;30.23;;;;;;;20.12;100.00;101043.06;5027666;28;20057;-79
2022/08/05 04:49:16;;;;;;;31.48;29.52;;;;;;;20.47;100.00;101047.03;5033500;28;20111;-82
2022/08/05 04:51:43;;;;;;;34.95;32.63;;;;;;;20.61;100.00;101042.00;5033974;28;20049;-81
2022/08/05 04:54:10;;;;;;;36.25;33.80;;;;;;;20.63;100.00;101050.59;5031401;28;20446;-81
2022/08/05 04:56:37;;;;;;;36.90;34.50;;;;;;;20.68;100.00;101037.16;5032839;28;20046;-79
2022/08/05 04:59:04;;;;;;;40.90;38.38;;;;;;;20.66;100.00;101037.41;5031168;28;20131;-81
2022/08/05 05:01:31;;;;;;;38.60;36.20;;;;;;;20.51;100.00;101040.00;5032398;28;20053;-80
2022/08/05 05:03:59;;;;;;;36.50;34.42;;;;;;;20.90;100.00;101035.03;5033175;28;20061;-80
2022/08/05 05:06:26;;;;;;;35.90;33.33;;;;;;;21.09;100.00;101037.22;5033308;28;20127;-81
2022/08/05 05:08:53;;;;;;;33.30;31.25;;;;;;;21.10;100.00;101028.84;5032324;28;20050;-80
2022/08/05 05:11:21;;;;;;;33.55;31.50;;;;;;;21.39;100.00;101031.06;5032657;28;20057;-80
2022/08/05 05:13:48;;;;;;;32.95;31.15;;;;;;;21.33;100.00;101029.41;5028499;28;20067;-78
2022/08/05 05:16:15;;;;;;;34.25;31.52;;;;;;;21.68;100.00;101034.00;5028345;28;20053;-81
2022/08/05 05:18:42;;;;;;;31.55;29.15;;;;;;;21.76;100.00;101029.97;5032078;28;20063;-78
2022/08/05 05:21:10;;;;;;;30.30;28.20;;;;;;;21.63;100.00;101034.00;5030866;28;20437;-81
2022/08/05 05:23:37;;;;;;;30.35;28.17;;;;;;;21.65;100.00;101024.56;5029635;28;20060;-78
2022/08/05 05:26:04;;;;;;;28.83;27.02;;;;;;;22.10;100.00;101028.25;5030555;28;20060;-81
2022/08/05 05:28:31;;;;;;;32.53;30.42;;;;;;;22.35;100.00;101027.34;5031151;28;20041;-79
2022/08/05 05:30:58;;;;;;;31.85;29.88;;;;;;;22.26;100.00;101029.03;5023937;28;20097;-80
2022/08/05 05:33:25;;;;;;;37.13;34.83;;;;;;;22.48;100.00;101022.44;5032465;28;20045;-81
2022/08/05 05:35:52;;;;;;;34.30;31.77;;;;;;;22.76;100.00;101013.63;5031455;28;20125;-82
2022/08/05 05:38:21;;;;;;;40.40;38.00;;;;;;;22.86;100.00;101015.47;5029814;28;20041;-79
2022/08/05 05:40:47;;;;;;;39.65;37.45;;;;;;;22.99;100.00;101020.25;5025681;28;20045;-79
2022/08/05 05:43:14;;;;;;;42.13;39.50;;;;;;;22.88;100.00;101010.59;5027653;28;20454;-80
2022/08/05 05:45:41;;;;;;;39.78;37.47;;;;;;;22.89;100.00;101017.59;5032969;28;20053;-81
2022/08/05 05:48:09;;;;;;;42.13;39.35;;;;;;;23.18;100.00;101020.41;5031285;28;20041;-79
2022/08/05 05:50:38;;;;;;;42.58;39.70;;;;;;;23.66;100.00;101011.56;5032739;28;20045;-83
2022/08/05 05:53:05;;;;;;;44.20;41.40;;;;;;;23.88;100.00;101013.84;5031675;28;20158;-79
2022/08/05 05:55:33;;;;;;;36.08;33.80;;;;;;;23.87;100.00;101007.59;5032250;28;20052;-81
2022/08/05 05:58:01;;;;;;;39.15;36.85;;;;;;;24.13;100.00;101004.59;5032638;28;20478;-81
2022/08/05 06:00:28;;;;;;;36.75;34.30;;;;;;;24.39;100.00;101010.53;5033427;28;20363;-78
2022/08/05 06:02:56;;;;;;;36.22;33.92;;;;;;;24.56;100.00;101013.56;5033055;28;20551;-82
2022/08/05 06:05:22;;;;;;;35.45;32.95;;;;;;;24.92;100.00;101021.19;5030772;28;20115;-80
2022/08/05 06:07:49;;;;;;;37.08;34.75;;;;;;;25.09;100.00;101017.97;5032589;28;20042;-79
2022/08/05 06:10:16;;;;;;;41.85;39.22;;;;;;;25.38;100.00;101020.47;5032024;28;20045;-77
2022/08/05 06:12:44;;;;;;;40.80;38.50;;;;;;;25.58;100.00;101008.47;5031203;28;20057;-78
2022/08/05 06:15:12;;;;;;;40.72;38.22;;;;;;;25.71;100.00;101012.28;5033754;28;20057;-81
2022/08/05 06:17:38;;;;;;;40.47;37.85;;;;;;;25.84;100.00;101011.56;5032809;28;20048;-80
2022/08/05 06:20:07;;;;;;;39.67;37.17;;;;;;;26.12;100.00;101020.53;5030094;28;20045;-81
2022/08/05 06:22:34;;;;;;;35.25;33.05;;;;;;;26.48;100.00;101012.41;5032330;28;20037;-82
2022/08/05 06:25:02;;;;;;;38.78;36.17;;;;;;;26.78;100.00;101006.59;5029337;28;20072;-78
2022/08/05 06:27:29;;;;;;;34.05;31.95;;;;;;;26.83;100.00;101009.22;5027293;28;20049;-78
2022/08/05 06:29:57;;;;;;;33.97;31.80;;;;;;;27.27;100.00;101002.97;5031560;28;20049;-81
2022/08/05 06:32:24;;;;;;;34.28;31.95;;;;;;;27.07;100.00;101006.97;5032159;28;20115;-79
2022/08/05 06:34:51;;;;;;;34.90;32.63;;;;;;;27.27;100.00;101002.19;5031259;28;20056;-79
2022/08/05 06:37:18;;;;;;;35.10;33.00;;;;;;;27.33;100.00;100999.00;5031416;28;20060;-78
2022/08/05 06:39:45;;;;;;;35.22;33.03;;;;;;;27.29;100.00;100997.22;5032287;28;20041;-81
2022/08/05 06:42:14;;;;;;;39.88;37.45;;;;;;;27.40;100.00;101004.81;5030230;28;20045;-79
2022/08/05 06:44:41;;;;;;;35.25;33.08;;;;;;;27.54;100.00;100998.50;5029393;28;20125;-80
2022/08/05 06:47:10;;;;;;;40.45;38.17;;;;;;;27.93;100.00;101002.34;5032178;28;20049;-82
2022/08/05 06:49:37;;;;;;;35.55;33.08;;;;;;;28.04;100.00;100993.56;5028736;28;20143;-82
2022/08/05 06:52:04;;;;;;;33.47;31.27;;;;;;;28.14;100.00;101002.56;5031562;28;20064;-81
2022/08/05 06:54:31;;;;;;;32.20;30.05;;;;;;;28.29;99.02;101005.69;5029614;28;20072;-81
2022/08/05 06:56:58;;;;;;;34.47;32.17;;;;;;;28.51;98.97;100999.31;5030932;28;20056;-81
2022/08/05 06:59:25;;;;;;;34.35;32.05;;;;;;;28.54;95.49;101011.53;5032725;28;20045;-78
2022/08/05 07:01:52;;;;;;;36.38;33.92;;;;;;;28.64;97.21;101000.28;5032405;28;20409;-81
2022/08/05 07:04:20;;;;;;;35.55;33.25;;;;;;;28.88;94.83;101015.38;5029078;28;20056;-81
2022/08/05 07:06:47;;;;;;;38.30;36.00;;;;;;;28.82;89.99;101005.75;5032094;28;20072;-80
2022/08/05 07:09:14;;;;;;;35.85;33.55;;;;;;;28.74;95.40;101005.41;5032033;28;20056;-79
2022/08/05 07:11:41;;;;;;;34.70;32.50;;;;;;;28.89;90.86;101006.06;5031431;28;20045;-78
2022/08/05 07:16:59;;;;;;;36.38;34.17;;;;;;;29.14;90.69;100998.97;5002343;28;20125;-80
2022/08/05 07:19:28;;;;;;;36.40;33.90;;;;;;;29.24;86.63;101001.38;5032485;28;20127;-78
2022/08/05 07:21:55;;;;;;;34.25;31.95;;;;;;;29.16;88.14;100996.72;5030789;28;20473;-81
2022/08/05 07:24:23;;;;;;;31.98;29.85;;;;;;;29.16;87.08;100994.00;5032223;28;20053;-80
2022/08/05 07:26:51;;;;;;;35.17;32.88;;;;;;;29.28;86.65;100993.31;5030414;28;20281;-80
2022/08/05 07:29:18;;;;;;;37.80;34.92;;;;;;;29.34;81.41;101001.03;5031879;28;20045;-81
2022/08/05 07:31:45;;;;;;;36.83;34.42;;;;;;;29.47;84.25;100996.47;5032270;28;20060;-78
2022/08/05 07:34:12;;;;;;;37.53;35.03;;;;;;;29.49;78.60;100994.22;5032102;28;20053;-79
2022/08/05 07:36:40;;;;;;;35.75;33.47;;;;;;;29.79;80.17;100992.38;5031978;28;20060;-79
2022/08/05 07:39:09;;;;;;;33.35;31.30;;;;;;;29.69;77.97;100990.00;5031811;28;20468;-81
2022/08/05 07:41:36;;;;;;;35.45;33.15;;;;;;;29.73;77.69;100992.88;5031153;28;20045;-80
2022/08/05 07:44:05;;;;;;;35.90;33.40;;;;;;;29.83;76.88;100989.75;5031721;28;20045;-81
2022/08/05 07:46:33;;;;;;;33.55;30.95;;;;;;;29.67;79.61;100984.03;5031846;28;20056;-80
2022/08/05 07:49:01;;;;;;;31.52;29.50;;;;;;;30.08;71.14;100988.03;5032273;28;20049;-80
2022/08/05 07:51:28;;;;;;;32.20;29.90;;;;;;;29.98;72.49;100986.47;5030139;28;20045;-81
2022/08/05 07:53:56;;;;;;;34.17;31.42;;;;;;;30.19;73.32;100986.50;5031108;28;20045;-81
2022/08/05 07:56:23;;;;;;;33.63;31.33;;;;;;;30.68;68.06;100994.22;5031941;28;20053;-79
2022/08/05 07:58:50;;;;;;;33.83;31.35;;;;;;;30.59;66.57;100994.28;5031888;28;20042;-81
2022/08/05 08:01:17;;;;;;;31.73;29.63;;;;;;;30.47;68.03;100996.97;5031451;28;20053;-79
2022/08/05 08:03:44;;;;;;;36.40;33.63;;;;;;;30.51;66.39;100992.44;5032251;28;20429;-80
2022/08/05 08:06:10;;;;;;;35.20;32.70;;;;;;;30.51;68.20;100995.97;5033051;28;20055;-78
2022/08/05 08:08:37;;;;;;;37.17;34.78;;;;;;;30.50;66.83;100996.31;5035601;28;20053;-79
2022/08/05 08:11:06;;;;;;;36.83;34.35;;;;;;;30.47;71.86;100994.22;5035462;28;20128;-80
2022/08/05 08:13:33;;;;;;;38.50;35.75;;;;;;;30.46;68.01;101000.84;5035863;28;20068;-80
2022/08/05 08:16:00;;;;;;;39.30;36.67;;;;;;;30.45;62.14;100991.84;5035771;28;20068;-79
2022/08/05 08:18:27;;;;;;;37.85;35.35;;;;;;;30.87;63.37;100993.78;5035380;28;20053;-78
2022/08/05 08:20:54;;;;;;;37.25;34.80;;;;;;;30.75;67.99;100989.03;5035720;28;20057;-80
2022/08/05 08:23:20;;;;;;;37.83;34.42;;;;;;;30.88;63.15;101000.88;5035244;28;20056;-78
2022/08/05 08:25:47;;;;;;;36.30;33.80;;;;;;;30.96;62.82;100992.56;5033581;28;20049;-80
2022/08/05 08:28:16;;;;;;;36.00;33.42;;;;;;;30.98;60.97;100998.50;5033595;28;20049;-78
2022/08/05 08:30:43;;;;;;;34.10;31.73;;;;;;;31.19;61.98;100994.91;5035689;28;20057;-79
2022/08/05 08:33:11;;;;;;;34.50;32.08;;;;;;;30.95;60.37;100993.69;5033876;28;20053;-79
2022/08/05 08:35:38;;;;;;;38.42;35.92;;;;;;;30.76;60.82;100987.88;5033076;28;20486;-82
2022/08/05 08:38:05;;;;;;;37.85;35.55;;;;;;;30.67;61.68;100981.66;5032728;28;20041;-81
2022/08/05 08:40:34;;;;;;;35.45;32.72;;;;;;;31.09;59.90;100985.19;5034843;28;20041;-82
2022/08/05 08:43:03;;;;;;;36.05;33.65;;;;;;;31.39;57.91;100980.34;5030819;28;20137;-81
2022/08/05 08:45:32;;;;;;;37.03;34.53;;;;;;;31.63;55.88;100973.31;5034373;28;20050;-80
2022/08/05 08:48:01;;;;;;;34.80;32.50;;;;;;;31.43;57.85;100975.00;5034348;28;20482;-79
2022/08/05 08:50:29;;;;;;;37.45;35.05;;;;;;;31.32;61.50;100965.56;5034421;28;20418;-79
2022/08/05 08:53:03;;;;;;;36.78;34.35;;;;;;;31.40;59.41;100970.19;5033913;28;20045;-81
2022/08/05 08:55:30;;;;;;;36.50;34.08;;;;;;;30.98;59.77;100962.06;5033147;28;20049;-79
2022/08/05 08:57:59;;;;;;;39.00;36.40;;;;;;;31.23;58.42;100965.69;5034189;28;20053;-78
2022/08/05 09:00:26;;;;;;;37.28;34.78;;;;;;;31.73;54.77;100952.81;5034968;28;20053;-79
2022/08/05 09:02:54;;;;;;;34.00;31.70;;;;;;;31.75;57.88;100959.56;5034254;28;20068;-81
2022/08/05 09:05:22;;;;;;;31.52;29.20;;;;;;;31.79;56.80;100954.19;5034247;28;20083;-78
2022/08/05 09:07:51;;;;;;;31.45;29.15;;;;;;;31.70;53.87;100952.34;5034223;28;20045;-81
2022/08/05 09:10:18;;;;;;;35.75;32.95;;;;;;;31.94;54.95;100959.00;5034135;28;20465;-78
2022/08/05 09:12:45;;;;;;;35.97;33.47;;;;;;;31.80;52.58;100958.53;5034653;28;20418;-81
2022/08/05 09:15:12;;;;;;;35.55;33.28;;;;;;;32.19;52.03;100954.28;5034348;28;20473;-78
2022/08/05 09:17:40;;;;;;;37.35;34.70;;;;;;;31.85;53.78;100948.13;5034382;28;20490;-79
2022/08/05 09:20:10;;;;;;;44.05;41.28;;;;;;;32.09;54.18;100941.03;5033917;28;20445;-81
2022/08/05 09:23:19;;;;;;;40.83;37.72;;;;;;;31.87;50.18;100940.34;5033975;28;20045;-81
2022/08/05 09:25:48;;;;;;;44.42;41.53;;;;;;;32.31;51.70;100932.25;4988624;28;20151;-79
2022/08/05 09:28:17;;;;;;;40.95;37.80;;;;;;;32.31;53.75;100928.72;5034068;28;20045;-78
2022/08/05 09:30:53;;;;;;;42.20;39.17;;;;;;;32.64;47.77;100934.00;5033885;28;20490;-78
2022/08/05 09:33:20;;;;;;;42.35;39.10;;;;;;;32.60;49.18;100931.16;5033674;28;20133;-78
2022/08/05 09:36:09;;;;;;;37.78;35.10;;;;;;;32.64;50.09;100931.25;5034055;28;20060;-78
2022/08/05 09:38:36;;;;;;;37.95;34.88;;;;;;;33.06;51.02;100936.34;5028829;28;20060;-82
2022/08/05 09:41:04;;;;;;;41.22;38.00;;;;;;;33.18;48.64;100928.00;5033668;28;20490;-82
2022/08/05 09:43:33;;;;;;;38.72;35.72;;;;;;;32.73;48.11;100942.88;5033597;28;20124;-80
2022/08/05 09:46:00;;;;;;;41.30;38.33;;;;;;;32.78;50.13;100934.41;5034001;28;20474;-78
2022/08/05 09:48:30;;;;;;;33.42;31.05;;;;;;;32.79;48.59;100935.19;5033467;28;20061;-81
2022/08/05 09:50:58;;;;;;;33.60;31.35;;;;;;;32.33;50.93;100932.72;5033467;28;20132;-78
2022/08/05 09:53:28;;;;;;;34.92;32.22;;;;;;;32.79;50.43;100936.00;5033661;28;20049;-81
2022/08/05 09:55:57;;;;;;;35.58;33.30;;;;;;;32.87;50.93;100933.44;5034021;28;20050;-81
2022/08/05 09:58:26;;;;;;;35.55;33.05;;;;;;;32.36;53.48;100925.72;5033405;28;20123;-81
2022/08/05 10:01:00;;;;;;;36.47;34.03;;;;;;;32.46;52.84;100919.75;5033293;28;20568;-79
2022/08/05 10:03:27;;;;;;;32.65;30.35;;;;;;;32.52;49.73;100914.81;5032395;28;20061;-82
2022/08/05 10:06:06;;;;;;;34.15;31.73;;;;;;;32.02;51.93;100913.34;5033192;28;20053;-79
2022/08/05 10:08:36;;;;;;;34.45;32.03;;;;;;;31.52;54.01;100909.81;5031148;28;20042;-82
2022/08/05 10:11:05;;;;;;;34.42;32.22;;;;;;;31.57;53.98;100906.06;5033469;28;20410;-79
2022/08/05 10:13:35;;;;;;;37.15;34.47;;;;;;;31.86;56.20;100900.31;5032882;28;20457;-79
2022/08/05 10:16:03;;;;;;;35.08;32.28;;;;;;;32.43;55.31;100901.19;5033624;28;20549;-78
2022/08/05 10:18:31;;;;;;;33.70;30.95;;;;;;;32.99;51.53;100900.41;5032631;28;20608;-79
2022/08/05 10:21:01;;;;;;;32.50;29.95;;;;;;;32.42;54.11;100896.84;5033515;28;20081;-81
2022/08/05 10:23:30;;;;;;;31.45;29.08;;;;;;;32.54;50.83;100888.56;5032878;28;20052;-79
2022/08/05 10:26:00;;;;;;;37.33;34.22;;;;;;;33.01;49.60;100893.41;5031467;28;20061;-80
2022/08/05 10:28:29;;;;;;;36.75;33.67;;;;;;;32.71;50.40;100898.47;5029675;28;20049;-78
2022/08/05 10:30:56;;;;;;;34.65;32.13;;;;;;;32.93;49.25;100896.28;5033932;28;20126;-81
2022/08/05 10:33:30;;;;;;;36.63;33.78;;;;;;;33.98;47.89;100896.47;5032522;28;20462;-82
2022/08/05 10:35:58;;;;;;;30.60;28.30;;;;;;;33.92;46.20;100889.66;5032776;28;20046;-81
2022/08/05 10:38:27;;;;;;;29.80;27.48;;;;;;;33.81;43.54;100882.31;5033010;28;20046;-79
2022/08/05 10:41:02;;;;;;;30.63;28.15;;;;;;;34.10;44.72;100889.25;5033266;28;20064;-81
2022/08/05 10:43:43;;;;;;;31.02;28.15;;;;;;;34.37;44.26;100884.69;5032829;28;20409;-79
2022/08/05 10:46:16;;;;;;;28.50;26.60;;;;;;;34.65;45.44;100885.28;5032535;28;20052;-82
2022/08/05 10:48:44;;;;;;;29.20;26.80;;;;;;;33.89;46.34;100882.13;5032228;28;20041;-83
2022/08/05 10:51:14;;;;;;;36.13;33.40;;;;;;;33.66;47.06;100868.22;5032686;28;20041;-79
2022/08/05 10:53:43;;;;;;;35.63;33.08;;;;;;;33.49;46.23;100865.81;5032482;28;20053;-82
2022/08/05 10:56:15;;;;;;;36.58;33.88;;;;;;;33.04;47.19;100864.34;5032250;28;20061;-80
2022/08/05 10:59:04;;;;;;;34.28;31.70;;;;;;;32.78;46.76;100865.66;5032325;28;20144;-80
2022/08/05 11:01:33;;;;;;;40.30;37.28;;;;;;;33.08;48.44;100850.72;5028041;28;20134;-82
2022/08/05 11:04:08;;;;;;;37.67;34.83;;;;;;;34.12;43.88;100851.91;5032127;28;20045;-80
2022/08/05 11:06:56;;;;;;;41.17;38.08;;;;;;;34.27;43.18;100850.25;5031155;28;20049;-81
2022/08/05 11:09:24;;;;;;;37.75;35.05;;;;;;;34.36;43.99;100856.31;5031073;28;20501;-79
2022/08/05 11:11:53;;;;;;;43.28;40.05;;;;;;;34.96;41.04;100855.84;5032970;28;20053;-84
2022/08/05 11:14:25;;;;;;;42.83;39.72;;;;;;;35.37;40.21;100849.81;5032775;28;20141;-82
2022/08/05 11:17:31;;;;;;;41.65;38.95;;;;;;;34.79;40.47;100848.84;5031697;28;20056;-82
2022/08/05 11:19:58;;;;;;;41.00;38.20;;;;;;;34.67;40.12;100843.53;5032397;28;20053;-84